This is the latest recevied weather packets stored in our database for station/object N6SPP. If no packets are shown the sender has not sent any weather packets the latest 1 day(s).
| Time | Temp. | Humidity | Pressure | Rain* | Wind** | Luminosity | Snow |
|---|---|---|---|---|---|---|---|
| 1778003191 | 15° C | 81% | 1017.7 hPa | 0 mm | 2.24 m/s, 253° | 270 W/m² | - |
| 1778002887 | 15° C | 81% | 1017.8 hPa | 0 mm | 1.79 m/s, 177° | 270 W/m² | - |
| 1778002584 | 14.44° C | 82% | 1017.7 hPa | 0 mm | 0.89 m/s, 281° | 284 W/m² | - |
| 1778002280 | 13.89° C | 84% | 1017.6 hPa | 0 mm | 0.89 m/s, 167° | 307 W/m² | - |
| 1778001978 | 14.44° C | 84% | 1017.5 hPa | 0 mm | 1.79 m/s, 30° | 288 W/m² | - |
| 1778001675 | 14.44° C | 84% | 1017.4 hPa | 0 mm | 0.45 m/s, 50° | 264 W/m² | - |
| 1778001369 | 13.89° C | 85% | 1017.7 hPa | 0 mm | 1.79 m/s, 213° | 218 W/m² | - |
| 1778001067 | 13.89° C | 86% | 1017.5 hPa | 0 mm | 0.89 m/s, 193° | 202 W/m² | - |
| 1778000763 | 13.33° C | 87% | 1017.7 hPa | 0 mm | 0.45 m/s, 330° | 180 W/m² | - |
| 1778000460 | 13.33° C | 88% | 1017.5 hPa | 0 mm | 1.34 m/s, 242° | 179 W/m² | - |
| 1778000154 | 13.33° C | 88% | 1017.8 hPa | 0 mm | 0.89 m/s, 222° | 187 W/m² | - |
| 1777999850 | 13.33° C | 88% | 1017.8 hPa | 0 mm | 0.89 m/s, 238° | 179 W/m² | - |
| 1777999541 | 13.33° C | 88% | 1017.8 hPa | 0 mm | 2.24 m/s, 185° | 184 W/m² | - |
| 1777999239 | 13.33° C | 89% | 1017.7 hPa | 0 mm | 1.34 m/s, 193° | 205 W/m² | - |
| 1777998937 | 12.78° C | 90% | 1017.8 hPa | 0 mm | 0.89 m/s, 184° | 197 W/m² | - |
| 1777998633 | 12.78° C | 90% | 1017.9 hPa | 0 mm | 0.89 m/s, 330° | 174 W/m² | - |
| 1777998327 | 12.78° C | 90% | 1017.7 hPa | 0 mm | 0 m/s | 93 W/m² | - |
| 1777998024 | 12.78° C | 90% | 1017.6 hPa | 0 mm | 0.45 m/s, 17° | 99 W/m² | - |
| 1777997720 | 12.78° C | 90% | 1017.7 hPa | 0 mm | 0.89 m/s, 251° | 100 W/m² | - |
| 1777997417 | 12.78° C | 91% | 1017.5 hPa | 0 mm | 0 m/s | 95 W/m² | - |
| 1777997115 | 12.22° C | 90% | 1017.6 hPa | 0 mm | 0.45 m/s, 267° | 90 W/m² | - |
| 1777996812 | 12.78° C | 90% | 1017.5 hPa | 0 mm | 0.89 m/s, 241° | 67 W/m² | - |
| 1777996508 | 12.78° C | 89% | 1017.6 hPa | 0 mm | 1.79 m/s, 228° | 70 W/m² | - |
| 1777996205 | 12.22° C | 89% | 1017.5 hPa | 0 mm | 2.68 m/s, 190° | 65 W/m² | - |
| 1777995901 | 12.22° C | 89% | 1017.2 hPa | 0 mm | 1.79 m/s, 209° | 49 W/m² | - |
* Rain latest hour (hover to see other rain measurements)
** Current wind speed in m/s (hover to see current wind gust speed)